sensor_id;sensor_type;location;lat;lon;timestamp;pressure;altitude;pressure_sealevel;temperature;humidity
26861;BME280;37676;46.956;7.430;2022-07-22T00:00:25;95602.84;;;27.59;43.63
26861;BME280;37676;46.956;7.430;2022-07-22T00:02:51;95602.69;;;27.48;44.01
26861;BME280;37676;46.956;7.430;2022-07-22T00:05:16;95611.44;;;27.59;43.42
26861;BME280;37676;46.956;7.430;2022-07-22T00:07:41;95574.69;;;27.36;43.66
26861;BME280;37676;46.956;7.430;2022-07-22T00:10:08;95608.41;;;27.57;43.57
26861;BME280;37676;46.956;7.430;2022-07-22T00:12:36;95605.56;;;27.57;43.84
26861;BME280;37676;46.956;7.430;2022-07-22T00:15:01;95600.44;;;27.56;43.68
26861;BME280;37676;46.956;7.430;2022-07-22T00:17:27;95604.47;;;27.53;43.73
26861;BME280;37676;46.956;7.430;2022-07-22T00:19:52;95607.19;;;27.51;43.81
26861;BME280;37676;46.956;7.430;2022-07-22T00:22:18;95611.84;;;27.46;43.64
26861;BME280;37676;46.956;7.430;2022-07-22T00:24:43;95605.97;;;27.44;43.79
26861;BME280;37676;46.956;7.430;2022-07-22T00:27:08;95566.03;;;27.17;43.66
26861;BME280;37676;46.956;7.430;2022-07-22T00:29:34;95611.38;;;27.40;43.76
26861;BME280;37676;46.956;7.430;2022-07-22T00:31:59;95589.41;;;27.33;43.90
26861;BME280;37676;46.956;7.430;2022-07-22T00:34:24;95555.94;;;27.07;44.06
26861;BME280;37676;46.956;7.430;2022-07-22T00:36:49;95602.66;;;27.38;43.92
26861;BME280;37676;46.956;7.430;2022-07-22T00:39:15;95601.72;;;27.35;44.07
26861;BME280;37676;46.956;7.430;2022-07-22T00:41:40;95596.63;;;27.34;44.17
26861;BME280;37676;46.956;7.430;2022-07-22T00:44:07;95590.91;;;27.34;43.93
26861;BME280;37676;46.956;7.430;2022-07-22T00:46:34;95414.50;;;26.14;44.18
26861;BME280;37676;46.956;7.430;2022-07-22T00:48:59;95584.13;;;27.29;44.29
26861;BME280;37676;46.956;7.430;2022-07-22T00:51:27;95528.81;;;26.89;44.01
26861;BME280;37676;46.956;7.430;2022-07-22T00:53:54;95588.75;;;27.25;44.21
26861;BME280;37676;46.956;7.430;2022-07-22T00:56:21;95565.38;;;27.00;43.94
26861;BME280;37676;46.956;7.430;2022-07-22T00:58:49;95582.00;;;27.20;44.23
26861;BME280;37676;46.956;7.430;2022-07-22T01:01:15;95580.47;;;27.19;44.39
26861;BME280;37676;46.956;7.430;2022-07-22T01:03:41;95578.22;;;27.18;44.18
26861;BME280;37676;46.956;7.430;2022-07-22T01:06:06;95558.63;;;27.05;44.24
26861;BME280;37676;46.956;7.430;2022-07-22T01:08:32;95567.81;;;27.13;44.45
26861;BME280;37676;46.956;7.430;2022-07-22T01:11:11;95560.88;;;27.06;44.56
26861;BME280;37676;46.956;7.430;2022-07-22T01:13:37;95569.00;;;27.10;44.39
26861;BME280;37676;46.956;7.430;2022-07-22T01:16:04;95376.19;;;25.81;44.64
26861;BME280;37676;46.956;7.430;2022-07-22T01:18:30;95544.44;;;26.88;44.45
26861;BME280;37676;46.956;7.430;2022-07-22T01:20:55;95572.75;;;27.03;44.63
26861;BME280;37676;46.956;7.430;2022-07-22T01:23:21;95571.69;;;26.98;44.84
26861;BME280;37676;46.956;7.430;2022-07-22T01:25:46;95572.88;;;26.95;44.67
26861;BME280;37676;46.956;7.430;2022-07-22T01:28:12;95569.69;;;26.91;44.64
26861;BME280;37676;46.956;7.430;2022-07-22T01:30:37;95517.53;;;26.55;44.78
26861;BME280;37676;46.956;7.430;2022-07-22T01:33:02;95519.94;;;26.49;44.94
26861;BME280;37676;46.956;7.430;2022-07-22T01:35:28;95564.25;;;26.86;44.88
26861;BME280;37676;46.956;7.430;2022-07-22T01:37:53;95267.78;;;24.82;44.76
26861;BME280;37676;46.956;7.430;2022-07-22T01:40:19;95567.72;;;26.84;45.24
26861;BME280;37676;46.956;7.430;2022-07-22T01:42:44;95566.34;;;26.76;44.85
26861;BME280;37676;46.956;7.430;2022-07-22T01:45:10;95573.69;;;26.79;45.32
26861;BME280;37676;46.956;7.430;2022-07-22T01:47:35;95558.81;;;26.71;45.06
26861;BME280;37676;46.956;7.430;2022-07-22T01:50:00;95400.72;;;25.67;45.27
26861;BME280;37676;46.956;7.430;2022-07-22T01:52:26;95562.13;;;26.77;45.22
26861;BME280;37676;46.956;7.430;2022-07-22T01:54:51;95572.03;;;26.76;45.37
26861;BME280;37676;46.956;7.430;2022-07-22T01:57:16;95567.09;;;26.76;45.27
26861;BME280;37676;46.956;7.430;2022-07-22T01:59:42;95568.28;;;26.73;45.44
26861;BME280;37676;46.956;7.430;2022-07-22T02:02:07;95542.78;;;26.58;45.30
26861;BME280;37676;46.956;7.430;2022-07-22T02:04:32;95349.31;;;25.31;45.45
26861;BME280;37676;46.956;7.430;2022-07-22T02:06:58;95356.53;;;25.32;45.63
26861;BME280;37676;46.956;7.430;2022-07-22T02:09:23;95567.22;;;26.69;45.53
26861;BME280;37676;46.956;7.430;2022-07-22T02:11:48;95569.56;;;26.63;45.40
26861;BME280;37676;46.956;7.430;2022-07-22T02:14:13;95513.03;;;26.25;45.39
26861;BME280;37676;46.956;7.430;2022-07-22T02:16:39;95564.56;;;26.54;45.23
26861;BME280;37676;46.956;7.430;2022-07-22T02:19:04;95562.56;;;26.47;45.28
26861;BME280;37676;46.956;7.430;2022-07-22T02:21:29;95553.50;;;26.40;45.31
26861;BME280;37676;46.956;7.430;2022-07-22T02:23:55;95532.09;;;26.22;45.44
26861;BME280;37676;46.956;7.430;2022-07-22T02:26:20;95548.69;;;26.33;45.50
26861;BME280;37676;46.956;7.430;2022-07-22T02:28:46;95507.28;;;25.98;45.35
26861;BME280;37676;46.956;7.430;2022-07-22T02:31:11;95314.91;;;24.76;45.49
26861;BME280;37676;46.956;7.430;2022-07-22T02:33:36;95521.56;;;26.15;45.59
26861;BME280;37676;46.956;7.430;2022-07-22T02:36:02;95546.84;;;26.28;45.69
26861;BME280;37676;46.956;7.430;2022-07-22T02:38:27;95541.72;;;26.27;45.68
26861;BME280;37676;46.956;7.430;2022-07-22T02:40:53;95516.69;;;26.08;45.38
26861;BME280;37676;46.956;7.430;2022-07-22T02:43:19;95501.94;;;26.02;45.83
26861;BME280;37676;46.956;7.430;2022-07-22T02:45:45;95541.25;;;26.21;45.54
26861;BME280;37676;46.956;7.430;2022-07-22T02:48:10;95540.50;;;26.20;45.71
26861;BME280;37676;46.956;7.430;2022-07-22T02:50:35;95536.88;;;26.20;45.78
26861;BME280;37676;46.956;7.430;2022-07-22T02:53:03;95543.19;;;26.18;45.64
26861;BME280;37676;46.956;7.430;2022-07-22T02:55:28;95377.19;;;24.89;45.90
26861;BME280;37676;46.956;7.430;2022-07-22T02:57:53;95544.03;;;26.11;45.75
26861;BME280;37676;46.956;7.430;2022-07-22T03:00:19;95548.06;;;26.08;45.77
26861;BME280;37676;46.956;7.430;2022-07-22T03:02:44;95535.56;;;26.04;45.97
26861;BME280;37676;46.956;7.430;2022-07-22T03:05:09;95533.13;;;26.00;46.17
26861;BME280;37676;46.956;7.430;2022-07-22T03:07:35;95528.59;;;25.97;45.89
26861;BME280;37676;46.956;7.430;2022-07-22T03:10:01;95499.63;;;25.74;46.08
26861;BME280;37676;46.956;7.430;2022-07-22T03:12:27;95526.25;;;25.86;46.00
26861;BME280;37676;46.956;7.430;2022-07-22T03:14:52;95524.94;;;25.87;46.33
26861;BME280;37676;46.956;7.430;2022-07-22T03:17:17;95536.16;;;25.85;46.34
26861;BME280;37676;46.956;7.430;2022-07-22T03:19:43;95545.16;;;25.82;46.36
26861;BME280;37676;46.956;7.430;2022-07-22T03:22:08;95532.66;;;25.77;46.22
26861;BME280;37676;46.956;7.430;2022-07-22T03:24:33;95500.31;;;25.48;46.74
26861;BME280;37676;46.956;7.430;2022-07-22T03:26:59;95540.72;;;25.71;46.66
26861;BME280;37676;46.956;7.430;2022-07-22T03:29:24;95540.72;;;25.71;46.59
26861;BME280;37676;46.956;7.430;2022-07-22T03:31:49;95544.72;;;25.68;46.50
26861;BME280;37676;46.956;7.430;2022-07-22T03:34:15;95552.38;;;25.66;46.51
26861;BME280;37676;46.956;7.430;2022-07-22T03:36:40;95544.97;;;25.63;46.64
26861;BME280;37676;46.956;7.430;2022-07-22T03:39:05;95258.53;;;23.64;46.89
26861;BME280;37676;46.956;7.430;2022-07-22T03:41:31;95552.28;;;25.56;46.85
26861;BME280;37676;46.956;7.430;2022-07-22T03:43:56;95552.13;;;25.54;47.11
26861;BME280;37676;46.956;7.430;2022-07-22T03:46:21;95554.63;;;25.50;47.11
26861;BME280;37676;46.956;7.430;2022-07-22T03:48:47;95524.78;;;25.34;47.12
26861;BME280;37676;46.956;7.430;2022-07-22T03:51:12;95530.84;;;25.38;47.16
26861;BME280;37676;46.956;7.430;2022-07-22T03:53:38;95507.06;;;25.18;47.49
26861;BME280;37676;46.956;7.430;2022-07-22T03:56:03;95519.91;;;25.27;47.08
26861;BME280;37676;46.956;7.430;2022-07-22T03:58:29;95391.06;;;24.26;47.14
26861;BME280;37676;46.956;7.430;2022-07-22T04:00:54;95421.16;;;24.53;47.60
26861;BME280;37676;46.956;7.430;2022-07-22T04:03:21;95536.69;;;25.40;47.53
26861;BME280;37676;46.956;7.430;2022-07-22T04:05:46;95502.63;;;25.08;47.64
26861;BME280;37676;46.956;7.430;2022-07-22T04:08:12;95442.06;;;24.73;47.62
26861;BME280;37676;46.956;7.430;2022-07-22T04:10:38;95531.56;;;25.38;47.82
26861;BME280;37676;46.956;7.430;2022-07-22T04:13:04;95538.03;;;25.39;47.58
26861;BME280;37676;46.956;7.430;2022-07-22T04:15:29;95532.34;;;25.39;47.46
26861;BME280;37676;46.956;7.430;2022-07-22T04:17:55;95411.78;;;24.43;47.99
26861;BME280;37676;46.956;7.430;2022-07-22T04:20:21;95541.44;;;25.37;48.09
26861;BME280;37676;46.956;7.430;2022-07-22T04:22:46;95471.13;;;24.89;47.90
26861;BME280;37676;46.956;7.430;2022-07-22T04:25:11;95536.16;;;25.34;48.64
26861;BME280;37676;46.956;7.430;2022-07-22T04:27:37;95542.84;;;25.29;48.07
26861;BME280;37676;46.956;7.430;2022-07-22T04:30:03;95544.19;;;25.28;48.54
26861;BME280;37676;46.956;7.430;2022-07-22T04:32:28;95540.25;;;25.23;48.42
26861;BME280;37676;46.956;7.430;2022-07-22T04:34:54;95529.94;;;25.11;48.29
26861;BME280;37676;46.956;7.430;2022-07-22T04:37:19;95545.28;;;25.15;48.48
26861;BME280;37676;46.956;7.430;2022-07-22T04:39:45;95545.88;;;25.14;48.39
26861;BME280;37676;46.956;7.430;2022-07-22T04:42:10;95539.41;;;25.13;48.41
26861;BME280;37676;46.956;7.430;2022-07-22T04:44:35;95547.00;;;25.11;48.60
26861;BME280;37676;46.956;7.430;2022-07-22T04:47:01;95385.41;;;24.01;48.31
26861;BME280;37676;46.956;7.430;2022-07-22T04:49:26;95520.19;;;24.97;48.37
26861;BME280;37676;46.956;7.430;2022-07-22T04:51:51;95536.97;;;25.10;48.65
26861;BME280;37676;46.956;7.430;2022-07-22T04:54:17;95539.06;;;25.09;48.97
26861;BME280;37676;46.956;7.430;2022-07-22T04:56:42;95542.50;;;25.08;48.78
26861;BME280;37676;46.956;7.430;2022-07-22T04:59:07;95562.25;;;25.06;48.94
26861;BME280;37676;46.956;7.430;2022-07-22T05:01:33;95537.97;;;25.05;49.25
26861;BME280;37676;46.956;7.430;2022-07-22T05:03:58;95537.97;;;25.05;48.93
26861;BME280;37676;46.956;7.430;2022-07-22T05:06:23;95542.16;;;25.04;49.29
26861;BME280;37676;46.956;7.430;2022-07-22T05:08:49;95386.00;;;23.92;49.00
26861;BME280;37676;46.956;7.430;2022-07-22T05:11:14;95535.13;;;25.05;49.35
26861;BME280;37676;46.956;7.430;2022-07-22T05:13:40;95532.28;;;25.05;49.18
26861;BME280;37676;46.956;7.430;2022-07-22T05:16:05;95524.72;;;25.00;49.35
26861;BME280;37676;46.956;7.430;2022-07-22T05:18:31;95285.03;;;23.42;49.38
26861;BME280;37676;46.956;7.430;2022-07-22T05:20:56;95529.44;;;25.05;49.30
26861;BME280;37676;46.956;7.430;2022-07-22T05:23:22;95358.38;;;23.85;49.23
26861;BME280;37676;46.956;7.430;2022-07-22T05:25:47;95529.09;;;25.01;49.22
26861;BME280;37676;46.956;7.430;2022-07-22T05:28:13;95515.00;;;24.86;49.68
26861;BME280;37676;46.956;7.430;2022-07-22T05:30:38;95515.81;;;24.79;49.38
26861;BME280;37676;46.956;7.430;2022-07-22T05:33:04;95550.69;;;25.04;49.57
26861;BME280;37676;46.956;7.430;2022-07-22T05:35:29;95538.72;;;25.05;49.14
26861;BME280;37676;46.956;7.430;2022-07-22T05:37:54;95530.16;;;25.05;49.19
26861;BME280;37676;46.956;7.430;2022-07-22T05:40:20;95518.69;;;24.96;49.11
26861;BME280;37676;46.956;7.430;2022-07-22T05:42:45;95523.75;;;25.05;49.64
26861;BME280;37676;46.956;7.430;2022-07-22T05:45:10;95533.53;;;25.11;49.33
26861;BME280;37676;46.956;7.430;2022-07-22T05:47:36;95527.19;;;25.20;49.18
26861;BME280;37676;46.956;7.430;2022-07-22T05:50:01;95509.34;;;25.20;49.18
26861;BME280;37676;46.956;7.430;2022-07-22T05:52:26;95354.00;;;24.16;49.54
26861;BME280;37676;46.956;7.430;2022-07-22T05:54:52;95509.69;;;25.24;49.31
26861;BME280;37676;46.956;7.430;2022-07-22T05:57:17;95514.88;;;25.35;49.59
26861;BME280;37676;46.956;7.430;2022-07-22T05:59:42;95517.91;;;25.37;49.71
26861;BME280;37676;46.956;7.430;2022-07-22T06:02:08;95506.88;;;25.41;49.30
26861;BME280;37676;46.956;7.430;2022-07-22T06:04:33;95473.84;;;25.21;49.30
26861;BME280;37676;46.956;7.430;2022-07-22T06:06:59;95507.53;;;25.49;49.49
26861;BME280;37676;46.956;7.430;2022-07-22T06:09:24;95453.72;;;25.19;49.26
26861;BME280;37676;46.956;7.430;2022-07-22T06:11:50;95518.44;;;25.60;49.27
26861;BME280;37676;46.956;7.430;2022-07-22T06:14:15;95461.09;;;25.22;49.21
26861;BME280;37676;46.956;7.430;2022-07-22T06:16:40;95517.59;;;25.67;49.47
26861;BME280;37676;46.956;7.430;2022-07-22T06:19:06;95519.06;;;25.68;49.26
26861;BME280;37676;46.956;7.430;2022-07-22T06:21:31;95441.16;;;25.22;49.25
26861;BME280;37676;46.956;7.430;2022-07-22T06:23:57;95440.56;;;25.23;49.43
26861;BME280;37676;46.956;7.430;2022-07-22T06:26:22;95449.19;;;25.33;49.36
26861;BME280;37676;46.956;7.430;2022-07-22T06:28:47;95513.53;;;25.70;49.65
26861;BME280;37676;46.956;7.430;2022-07-22T06:31:13;95521.16;;;25.85;49.54
26861;BME280;37676;46.956;7.430;2022-07-22T06:33:38;95326.03;;;24.64;49.71
26861;BME280;37676;46.956;7.430;2022-07-22T06:36:04;95515.03;;;25.88;49.72
26861;BME280;37676;46.956;7.430;2022-07-22T06:38:30;95521.66;;;25.91;49.77
26861;BME280;37676;46.956;7.430;2022-07-22T06:40:55;95364.66;;;24.92;49.45
26861;BME280;37676;46.956;7.430;2022-07-22T06:43:21;95511.47;;;25.97;49.66
26861;BME280;37676;46.956;7.430;2022-07-22T06:45:46;95481.16;;;25.75;49.62
26861;BME280;37676;46.956;7.430;2022-07-22T06:48:12;95513.00;;;25.98;49.89
26861;BME280;37676;46.956;7.430;2022-07-22T06:50:37;95483.63;;;25.79;49.58
26861;BME280;37676;46.956;7.430;2022-07-22T06:53:02;95520.13;;;26.07;49.88
26861;BME280;37676;46.956;7.430;2022-07-22T06:55:28;95510.41;;;26.10;49.79
26861;BME280;37676;46.956;7.430;2022-07-22T06:57:53;95522.56;;;26.10;49.74
26861;BME280;37676;46.956;7.430;2022-07-22T07:00:19;95369.16;;;25.12;49.43
26861;BME280;37676;46.956;7.430;2022-07-22T07:02:44;95506.78;;;26.09;49.62
26861;BME280;37676;46.956;7.430;2022-07-22T07:05:10;95492.38;;;26.07;49.53
26861;BME280;37676;46.956;7.430;2022-07-22T07:07:35;95516.63;;;26.25;49.68
26861;BME280;37676;46.956;7.430;2022-07-22T07:10:00;95510.34;;;26.27;49.47
26861;BME280;37676;46.956;7.430;2022-07-22T07:12:26;95210.16;;;24.30;49.69
26861;BME280;37676;46.956;7.430;2022-07-22T07:14:51;95500.44;;;26.28;49.79
26861;BME280;37676;46.956;7.430;2022-07-22T07:17:16;95478.16;;;26.17;49.60
26861;BME280;37676;46.956;7.430;2022-07-22T07:19:42;95426.47;;;25.86;49.75
26861;BME280;37676;46.956;7.430;2022-07-22T07:22:07;95513.72;;;26.42;49.67
26861;BME280;37676;46.956;7.430;2022-07-22T07:24:32;95518.41;;;26.48;50.00
26861;BME280;37676;46.956;7.430;2022-07-22T07:26:58;95510.75;;;26.50;49.94
26861;BME280;37676;46.956;7.430;2022-07-22T07:29:23;95516.03;;;26.54;49.97
26861;BME280;37676;46.956;7.430;2022-07-22T07:31:49;95483.38;;;26.37;49.95
26861;BME280;37676;46.956;7.430;2022-07-22T07:34:14;95486.56;;;26.51;49.87
26861;BME280;37676;46.956;7.430;2022-07-22T07:36:40;95496.53;;;26.60;49.40
26861;BME280;37676;46.956;7.430;2022-07-22T07:39:05;95501.03;;;26.63;49.67
26861;BME280;37676;46.956;7.430;2022-07-22T07:41:31;95497.16;;;26.68;49.60
26861;BME280;37676;46.956;7.430;2022-07-22T07:43:56;95464.47;;;26.42;49.54
26861;BME280;37676;46.956;7.430;2022-07-22T07:46:22;95489.63;;;26.63;49.39
26861;BME280;37676;46.956;7.430;2022-07-22T07:48:47;95498.84;;;26.71;49.68
26861;BME280;37676;46.956;7.430;2022-07-22T07:51:13;95494.97;;;26.76;49.53
26861;BME280;37676;46.956;7.430;2022-07-22T07:53:39;95502.31;;;26.79;49.16
26861;BME280;37676;46.956;7.430;2022-07-22T07:56:04;95504.56;;;26.80;48.94
26861;BME280;37676;46.956;7.430;2022-07-22T07:58:30;95477.78;;;26.66;48.90
26861;BME280;37676;46.956;7.430;2022-07-22T08:00:55;95447.09;;;26.57;49.02
26861;BME280;37676;46.956;7.430;2022-07-22T08:03:20;95411.28;;;26.37;48.78
26861;BME280;37676;46.956;7.430;2022-07-22T08:05:46;95488.84;;;26.89;48.95
26861;BME280;37676;46.956;7.430;2022-07-22T08:08:11;95483.44;;;26.93;48.68
26861;BME280;37676;46.956;7.430;2022-07-22T08:10:36;95477.56;;;26.91;48.75
26861;BME280;37676;46.956;7.430;2022-07-22T08:13:02;95486.75;;;26.99;48.76
26861;BME280;37676;46.956;7.430;2022-07-22T08:15:28;95330.50;;;25.98;48.95
26861;BME280;37676;46.956;7.430;2022-07-22T08:17:54;95493.09;;;27.07;48.62
26861;BME280;37676;46.956;7.430;2022-07-22T08:20:21;95496.09;;;27.09;48.49
26861;BME280;37676;46.956;7.430;2022-07-22T08:22:46;95470.97;;;26.98;48.18
26861;BME280;37676;46.956;7.430;2022-07-22T08:25:13;95493.25;;;27.09;48.24
26861;BME280;37676;46.956;7.430;2022-07-22T08:27:38;95489.31;;;27.04;48.31
26861;BME280;37676;46.956;7.430;2022-07-22T08:30:05;95485.13;;;27.15;48.30
26861;BME280;37676;46.956;7.430;2022-07-22T08:32:31;95495.81;;;27.14;48.33
26861;BME280;37676;46.956;7.430;2022-07-22T08:34:57;95488.16;;;27.17;48.18
26861;BME280;37676;46.956;7.430;2022-07-22T08:37:22;95491.28;;;27.21;48.10
26861;BME280;37676;46.956;7.430;2022-07-22T08:39:48;95494.31;;;27.23;48.29
26861;BME280;37676;46.956;7.430;2022-07-22T08:42:13;95497.47;;;27.27;48.25
26861;BME280;37676;46.956;7.430;2022-07-22T08:44:39;95479.88;;;27.21;48.16
26861;BME280;37676;46.956;7.430;2022-07-22T08:47:05;95492.56;;;27.37;48.32
26861;BME280;37676;46.956;7.430;2022-07-22T08:49:30;95500.97;;;27.35;47.98
26861;BME280;37676;46.956;7.430;2022-07-22T08:51:56;95491.66;;;27.44;47.79
26861;BME280;37676;46.956;7.430;2022-07-22T08:54:21;95475.84;;;27.43;47.87
26861;BME280;37676;46.956;7.430;2022-07-22T08:56:51;95482.19;;;27.51;47.96
26861;BME280;37676;46.956;7.430;2022-07-22T08:59:16;95488.03;;;27.53;48.04
26861;BME280;37676;46.956;7.430;2022-07-22T09:02:21;95491.06;;;27.55;47.97
26861;BME280;37676;46.956;7.430;2022-07-22T09:04:58;95490.16;;;27.62;47.74
26861;BME280;37676;46.956;7.430;2022-07-22T09:07:27;95493.47;;;27.68;47.75
26861;BME280;37676;46.956;7.430;2022-07-22T09:09:53;95468.94;;;27.56;47.48
26861;BME280;37676;46.956;7.430;2022-07-22T09:12:19;95468.94;;;27.56;47.52
26861;BME280;37676;46.956;7.430;2022-07-22T09:14:52;95487.00;;;27.68;47.35
26861;BME280;37676;46.956;7.430;2022-07-22T09:19:50;95462.16;;;27.70;47.62
26861;BME280;37676;46.956;7.430;2022-07-22T09:22:42;95483.50;;;27.88;47.18
26861;BME280;37676;46.956;7.430;2022-07-22T09:25:22;95450.88;;;27.72;47.16
26861;BME280;37676;46.956;7.430;2022-07-22T09:27:50;95481.41;;;27.98;47.35
26861;BME280;37676;46.956;7.430;2022-07-22T09:30:21;95458.09;;;27.83;47.49
26861;BME280;37676;46.956;7.430;2022-07-22T09:32:48;95461.09;;;27.94;47.14
26861;BME280;37676;46.956;7.430;2022-07-22T09:35:14;95440.47;;;27.86;47.07
26861;BME280;37676;46.956;7.430;2022-07-22T09:37:55;95477.75;;;28.17;46.79
26861;BME280;37676;46.956;7.430;2022-07-22T09:40:23;95478.81;;;28.21;46.77
26861;BME280;37676;46.956;7.430;2022-07-22T09:42:53;95462.56;;;28.14;46.67
26861;BME280;37676;46.956;7.430;2022-07-22T09:45:20;95455.63;;;28.17;46.63
26861;BME280;37676;46.956;7.430;2022-07-22T09:47:47;95485.81;;;28.40;46.93
26861;BME280;37676;46.956;7.430;2022-07-22T09:50:15;95479.16;;;28.47;46.61
26861;BME280;37676;46.956;7.430;2022-07-22T09:52:41;95475.25;;;28.52;46.77
26861;BME280;37676;46.956;7.430;2022-07-22T09:55:08;95474.47;;;28.61;46.80
26861;BME280;37676;46.956;7.430;2022-07-22T09:57:33;95473.81;;;28.72;46.48
26861;BME280;37676;46.956;7.430;2022-07-22T09:59:59;95477.84;;;28.78;46.69
26861;BME280;37676;46.956;7.430;2022-07-22T10:02:27;95472.84;;;28.88;46.47
26861;BME280;37676;46.956;7.430;2022-07-22T10:04:54;95468.25;;;28.95;46.33
26861;BME280;37676;46.956;7.430;2022-07-22T10:07:22;95465.19;;;29.02;46.44
26861;BME280;37676;46.956;7.430;2022-07-22T10:09:48;95449.38;;;29.01;46.56
26861;BME280;37676;46.956;7.430;2022-07-22T10:12:14;95463.72;;;29.22;46.44
26861;BME280;37676;46.956;7.430;2022-07-22T10:14:40;95444.28;;;29.21;45.43
26861;BME280;37676;46.956;7.430;2022-07-22T10:17:06;95458.22;;;29.36;45.28
26861;BME280;37676;46.956;7.430;2022-07-22T10:19:31;95448.50;;;29.41;45.51
26861;BME280;37676;46.956;7.430;2022-07-22T10:21:57;95451.78;;;29.47;45.39
26861;BME280;37676;46.956;7.430;2022-07-22T10:24:22;95428.31;;;29.39;45.37
26861;BME280;37676;46.956;7.430;2022-07-22T10:26:49;95451.38;;;29.62;45.58
26861;BME280;37676;46.956;7.430;2022-07-22T10:29:45;95455.19;;;29.76;44.88
26861;BME280;37676;46.956;7.430;2022-07-22T10:34:40;95338.13;;;29.19;44.71
26861;BME280;37676;46.956;7.430;2022-07-22T10:37:48;95440.25;;;29.89;44.83
26861;BME280;37676;46.956;7.430;2022-07-22T10:40:18;95442.69;;;30.04;45.18
26861;BME280;37676;46.956;7.430;2022-07-22T10:45:31;95438.09;;;30.22;44.00
26861;BME280;37676;46.956;7.430;2022-07-22T10:47:59;95423.34;;;30.16;43.78
26861;BME280;37676;46.956;7.430;2022-07-22T11:00:59;95415.03;;;30.55;43.00
26861;BME280;37676;46.956;7.430;2022-07-22T11:03:28;95237.13;;;29.42;43.19
26861;BME280;37676;46.956;7.430;2022-07-22T11:05:54;95419.66;;;30.72;43.22
26861;BME280;37676;46.956;7.430;2022-07-22T11:08:21;95420.78;;;30.78;43.34
26861;BME280;37676;46.956;7.430;2022-07-22T11:10:50;95402.91;;;30.80;43.17
26861;BME280;37676;46.956;7.430;2022-07-22T11:13:32;95400.66;;;30.90;42.99
26861;BME280;37676;46.956;7.430;2022-07-22T11:16:18;95420.03;;;31.01;42.83
26861;BME280;37676;46.956;7.430;2022-07-22T11:19:00;95416.88;;;31.08;42.20
26861;BME280;37676;46.956;7.430;2022-07-22T11:21:32;95410.75;;;31.14;42.01
26861;BME280;37676;46.956;7.430;2022-07-22T11:24:01;95403.00;;;31.16;42.31
26861;BME280;37676;46.956;7.430;2022-07-22T11:26:41;95411.59;;;31.28;42.05
26861;BME280;37676;46.956;7.430;2022-07-22T11:29:08;95386.34;;;31.27;41.84
26861;BME280;37676;46.956;7.430;2022-07-22T11:31:36;95410.84;;;31.39;41.81
26861;BME280;37676;46.956;7.430;2022-07-22T11:34:09;95403.94;;;31.44;41.47
26861;BME280;37676;46.956;7.430;2022-07-22T11:36:38;95393.44;;;31.49;41.36
26861;BME280;37676;46.956;7.430;2022-07-22T11:39:05;95392.78;;;31.50;40.75
26861;BME280;37676;46.956;7.430;2022-07-22T11:41:31;95397.50;;;31.57;40.74
26861;BME280;37676;46.956;7.430;2022-07-22T11:43:58;95350.59;;;31.30;40.93
26861;BME280;37676;46.956;7.430;2022-07-22T11:46:24;95377.91;;;31.54;40.41
26861;BME280;37676;46.956;7.430;2022-07-22T11:48:54;95382.72;;;31.63;40.69
26861;BME280;37676;46.956;7.430;2022-07-22T11:51:27;95385.19;;;31.68;40.83
26861;BME280;37676;46.956;7.430;2022-07-22T11:53:53;95354.88;;;31.54;40.73
26861;BME280;37676;46.956;7.430;2022-07-22T11:56:18;95385.56;;;31.74;40.60
26861;BME280;37676;46.956;7.430;2022-07-22T11:58:47;95371.69;;;31.71;40.27
26861;BME280;37676;46.956;7.430;2022-07-22T12:01:15;95367.66;;;31.76;40.49
26861;BME280;37676;46.956;7.430;2022-07-22T12:03:46;95367.13;;;31.79;40.30
26861;BME280;37676;46.956;7.430;2022-07-22T12:06:15;95361.50;;;31.81;40.13
26861;BME280;37676;46.956;7.430;2022-07-22T12:08:43;95355.75;;;31.81;39.48
26861;BME280;37676;46.956;7.430;2022-07-22T12:11:10;95336.19;;;31.66;39.63
26861;BME280;37676;46.956;7.430;2022-07-22T12:13:41;95321.69;;;31.64;38.70
26861;BME280;37676;46.956;7.430;2022-07-22T12:16:21;95359.94;;;31.92;38.65
26861;BME280;37676;46.956;7.430;2022-07-22T12:18:55;95354.53;;;31.98;38.66
26861;BME280;37676;46.956;7.430;2022-07-22T12:21:21;95364.47;;;32.08;37.45
26861;BME280;37676;46.956;7.430;2022-07-22T12:26:46;95367.22;;;32.06;37.84
26861;BME280;37676;46.956;7.430;2022-07-22T12:32:00;95356.47;;;32.07;38.25
26861;BME280;37676;46.956;7.430;2022-07-22T12:34:44;95350.19;;;32.10;37.77
26861;BME280;37676;46.956;7.430;2022-07-22T12:37:17;95339.53;;;32.13;36.89
26861;BME280;37676;46.956;7.430;2022-07-22T12:40:05;95308.91;;;31.92;35.86
26861;BME280;37676;46.956;7.430;2022-07-22T12:42:41;95337.91;;;32.10;36.49
26861;BME280;37676;46.956;7.430;2022-07-22T12:47:42;95340.16;;;32.11;36.62
26861;BME280;37676;46.956;7.430;2022-07-22T12:52:59;95324.38;;;32.13;37.20
26861;BME280;37676;46.956;7.430;2022-07-22T12:55:26;95318.63;;;32.13;36.66
26861;BME280;37676;46.956;7.430;2022-07-22T12:57:52;95329.09;;;32.20;36.53
26861;BME280;37676;46.956;7.430;2022-07-22T13:00:22;95266.41;;;31.79;36.90
26861;BME280;37676;46.956;7.430;2022-07-22T13:02:48;95317.13;;;32.11;36.34
26861;BME280;37676;46.956;7.430;2022-07-22T13:05:14;95323.31;;;32.20;36.67
26861;BME280;37676;46.956;7.430;2022-07-22T13:07:40;95328.44;;;32.21;36.62
26861;BME280;37676;46.956;7.430;2022-07-22T13:10:06;95314.47;;;32.16;37.08
26861;BME280;37676;46.956;7.430;2022-07-22T13:12:32;95314.56;;;32.18;36.92
26861;BME280;37676;46.956;7.430;2022-07-22T13:14:57;95310.44;;;32.21;36.63
26861;BME280;37676;46.956;7.430;2022-07-22T13:17:22;95309.69;;;32.20;36.76
26861;BME280;37676;46.956;7.430;2022-07-22T13:19:48;95300.72;;;32.14;37.51
26861;BME280;37676;46.956;7.430;2022-07-22T13:22:13;95325.47;;;32.33;37.08
26861;BME280;37676;46.956;7.430;2022-07-22T13:24:38;95194.22;;;31.48;36.55
26861;BME280;37676;46.956;7.430;2022-07-22T13:27:04;95202.97;;;31.50;35.94